Current Weather

Baraboo/Wisconsin Dells Rgnl

Baraboo, Wisconsin (KDLL)

Report from: Wednesday, April 24, 2024 10:35 PM CDT
Current time: Wednesday, April 24, 2024 10:55 PM CDT

Nearby weather – Weather history – Daily summaries
Weather forecast

Temperature5.2°C (41.4°F)
Dew point-4.2°C (24.4°F)
Winds Calm
Visibility10 mi. (16.1 km)
Clouds Sky clear
Altimeter30.26 in.Hg (1025 mB)
Relative humidity51 %
Density altitude-1,501 ft. (-457 m)
Remarks Fully automated report
Automated weather observing station with precipitation discriminator
Flight conditions Visual Meteorological Conditions
Raw dataKDLL 250335Z AUTO 00000KT 10SM CLR 05/M04 A3026 RMK AO2 T00521042
An error has occurred. This application may no longer respond until reloaded. Reload 🗙